createdAt,value
2023-05-12T00:01:38.260Z,100458.00
2023-05-12T00:06:39.694Z,100442.97
2023-05-12T00:11:41.113Z,100456.06
2023-05-12T00:16:43.298Z,100461.75
2023-05-12T00:21:44.806Z,100445.31
2023-05-12T00:26:46.234Z,100444.44
2023-05-12T00:31:47.750Z,100445.50
2023-05-12T00:36:49.199Z,100439.34
2023-05-12T00:41:58.143Z,100454.22
2023-05-12T00:46:59.601Z,100456.41
2023-05-12T00:52:02.576Z,100449.41
2023-05-12T00:57:04.327Z,100440.97
2023-05-12T01:02:07.294Z,100451.75
2023-05-12T01:07:22.488Z,100446.13
2023-05-12T01:12:26.070Z,100445.69
2023-05-12T01:17:31.920Z,100449.84
2023-05-12T01:22:33.972Z,100451.91
2023-05-12T01:27:39.198Z,100459.53
2023-05-12T01:32:42.117Z,100450.19
2023-05-12T01:37:44.029Z,100455.44
2023-05-12T01:42:45.516Z,100452.34
2023-05-12T01:47:47.613Z,100459.09
2023-05-12T01:52:49.279Z,100460.28
2023-05-12T01:57:52.688Z,100462.56
2023-05-12T02:02:55.247Z,100466.28
2023-05-12T02:07:57.281Z,100465.59
2023-05-12T02:12:58.911Z,100474.09
2023-05-12T02:18:03.641Z,100470.41
2023-05-12T02:23:05.625Z,100479.13
2023-05-12T02:28:10.923Z,100479.25
2023-05-12T02:33:13.636Z,100473.03
2023-05-12T02:38:15.129Z,100473.03
2023-05-12T02:43:16.814Z,100474.25
2023-05-12T02:48:18.357Z,100462.81
2023-05-12T02:53:19.986Z,100470.94
2023-05-12T02:58:22.287Z,100469.41
2023-05-12T03:03:23.798Z,100467.63
2023-05-12T03:08:25.451Z,100471.53
2023-05-12T03:13:26.984Z,100467.13
2023-05-12T03:18:29.085Z,100471.22
2023-05-12T03:23:31.405Z,100477.78
2023-05-12T03:28:33.178Z,100484.56
2023-05-12T03:33:34.694Z,100478.19
2023-05-12T03:38:36.928Z,100475.31
2023-05-12T03:43:38.647Z,100479.75
2023-05-12T03:48:40.101Z,100476.72
2023-05-12T03:53:45.241Z,100473.53
2023-05-12T03:58:47.934Z,100482.13
2023-05-12T04:03:51.015Z,100485.19
2023-05-12T04:08:52.612Z,100482.84
2023-05-12T04:13:54.139Z,100495.31
2023-05-12T04:18:57.329Z,100495.16
2023-05-12T04:23:59.262Z,100500.03
2023-05-12T04:29:04.756Z,100497.03
2023-05-12T04:34:06.576Z,100493.59
2023-05-12T04:39:09.652Z,100501.81
2023-05-12T04:44:11.633Z,100501.53
2023-05-12T04:49:14.269Z,100505.78
2023-05-12T04:54:15.714Z,100500.72
2023-05-12T04:59:17.726Z,100497.03
2023-05-12T05:04:21.328Z,100512.72
2023-05-12T05:09:22.854Z,100508.69
2023-05-12T05:14:24.608Z,100516.78
2023-05-12T05:19:40.483Z,100518.69
2023-05-12T05:24:48.745Z,100529.81
2023-05-12T05:29:50.676Z,100526.97
2023-05-12T05:34:52.386Z,100524.31
2023-05-12T05:39:54.029Z,100522.53
2023-05-12T05:44:56.274Z,100515.34
2023-05-12T05:49:58.725Z,100529.06
2023-05-12T05:55:00.473Z,100534.91
2023-05-12T06:00:04.968Z,100540.09
2023-05-12T06:05:14.895Z,100544.84
2023-05-12T06:10:16.456Z,100537.31
2023-05-12T06:15:18.797Z,100541.13
2023-05-12T06:20:20.662Z,100534.47
2023-05-12T06:25:22.384Z,100551.75
2023-05-12T06:30:24.101Z,100554.91
2023-05-12T06:35:29.241Z,100554.56
2023-05-12T06:40:30.692Z,100554.00
2023-05-12T06:45:32.114Z,100554.19
2023-05-12T06:50:34.382Z,100560.00
2023-05-12T06:55:35.832Z,100559.81
2023-05-12T07:00:37.329Z,100559.28
2023-05-12T07:05:38.798Z,100560.25
2023-05-12T07:10:40.313Z,100548.78
2023-05-12T07:15:41.982Z,100550.69
2023-05-12T07:20:43.991Z,100537.38
2023-05-12T07:25:45.478Z,100539.72
2023-05-12T07:30:47.188Z,100541.19
2023-05-12T07:35:48.629Z,100538.66
2023-05-12T07:40:51.234Z,100531.25
2023-05-12T07:45:52.894Z,100534.78
2023-05-12T07:50:54.588Z,100538.44
2023-05-12T07:55:56.166Z,100532.94
2023-05-12T08:01:00.121Z,100532.22
2023-05-12T08:06:04.641Z,100529.41
2023-05-12T08:11:06.106Z,100528.34
2023-05-12T08:16:07.525Z,100532.22
2023-05-12T08:21:08.987Z,100530.19
2023-05-12T08:26:10.518Z,100524.13
2023-05-12T08:31:12.491Z,100519.56
2023-05-12T08:36:14.452Z,100516.75
2023-05-12T08:41:19.997Z,100531.81
2023-05-12T08:46:22.520Z,100527.16
2023-05-12T08:51:24.425Z,100529.78
2023-05-12T09:01:31.655Z,100526.72
2023-05-12T09:06:33.297Z,100536.19
2023-05-12T09:11:34.747Z,100540.22
2023-05-12T09:16:45.423Z,100530.13
2023-05-12T09:21:47.741Z,100535.16
2023-05-12T09:26:51.498Z,100530.28
2023-05-12T09:31:54.268Z,100530.13
2023-05-12T09:36:57.548Z,100528.56
2023-05-12T09:41:59.246Z,100525.44
2023-05-12T09:47:07.932Z,100516.47
2023-05-12T09:52:09.412Z,100524.59
2023-05-12T09:57:12.671Z,100533.22
2023-05-12T10:02:16.479Z,100521.06
2023-05-12T10:07:23.084Z,100525.97
2023-05-12T10:12:24.544Z,100516.09
2023-05-12T10:17:26.836Z,100515.84
2023-05-12T10:22:29.522Z,100513.59
2023-05-12T10:27:33.250Z,100508.75
2023-05-12T10:32:34.937Z,100502.38
2023-05-12T10:37:37.640Z,100510.31
2023-05-12T10:42:41.373Z,100514.81
2023-05-12T10:47:43.168Z,100516.75
2023-05-12T10:52:56.501Z,100517.50
2023-05-12T10:58:05.677Z,100527.13
2023-05-12T11:03:13.374Z,100521.91
2023-05-12T11:08:16.606Z,100515.84
2023-05-12T11:13:19.499Z,100517.66
2023-05-12T11:18:21.910Z,100508.00
2023-05-12T11:23:28.866Z,100510.56
2023-05-12T11:28:39.898Z,100514.03
2023-05-12T11:33:41.496Z,100513.47
2023-05-12T11:38:50.311Z,100514.88
2023-05-12T11:43:52.855Z,100514.91
2023-05-12T11:48:59.639Z,100524.28
2023-05-12T11:54:01.128Z,100526.34
2023-05-12T11:59:02.705Z,100524.13
2023-05-12T12:04:04.413Z,100538.09
2023-05-12T12:09:05.945Z,100537.78
2023-05-12T12:14:07.563Z,100539.69
2023-05-12T12:19:09.141Z,100543.09
2023-05-12T12:24:10.798Z,100538.63
2023-05-12T12:29:12.427Z,100541.66
2023-05-12T12:34:13.882Z,100541.41
2023-05-12T12:39:16.039Z,100531.03
2023-05-12T12:44:19.535Z,100538.53
2023-05-12T12:49:20.949Z,100543.75
2023-05-12T12:54:22.647Z,100552.59
2023-05-12T12:59:24.143Z,100552.03
2023-05-12T13:04:25.587Z,100549.84
2023-05-12T13:09:27.070Z,100544.63
2023-05-12T13:14:28.511Z,100538.38
2023-05-12T13:19:29.945Z,100537.72
2023-05-12T13:24:31.484Z,100539.28
2023-05-12T13:29:32.932Z,100523.97
2023-05-12T13:34:34.501Z,100530.06
2023-05-12T13:39:35.970Z,100519.06
2023-05-12T13:44:37.771Z,100522.25
2023-05-12T13:49:39.225Z,100533.16
2023-05-12T13:54:40.855Z,100527.44
2023-05-12T13:59:42.286Z,100523.38
2023-05-12T14:04:43.732Z,100519.47
2023-05-12T14:09:45.555Z,100526.50
2023-05-12T14:14:49.916Z,100522.38
2023-05-12T14:19:51.400Z,100519.88
2023-05-12T14:24:53.753Z,100524.22
2023-05-12T14:29:55.237Z,100517.53
2023-05-12T14:34:57.111Z,100516.13
2023-05-12T14:39:58.546Z,100521.78
2023-05-12T14:45:00.040Z,100513.97
2023-05-12T14:50:01.480Z,100518.19
2023-05-12T14:55:03.674Z,100531.31
2023-05-12T15:00:07.919Z,100537.66
2023-05-12T15:05:11.149Z,100542.91
2023-05-12T15:10:12.873Z,100538.69
2023-05-12T15:15:14.405Z,100538.59
2023-05-12T15:20:15.924Z,100533.66
2023-05-12T15:25:17.365Z,100538.06
2023-05-12T15:30:18.864Z,100535.53
2023-05-12T15:35:20.566Z,100531.22
2023-05-12T15:40:22.647Z,100531.59
2023-05-12T15:45:24.096Z,100532.66
2023-05-12T15:50:25.701Z,100533.28
2023-05-12T15:55:27.162Z,100523.69
2023-05-12T16:00:28.702Z,100522.13
2023-05-12T16:05:30.709Z,100525.03
2023-05-12T16:10:32.199Z,100521.97
2023-05-12T16:15:33.650Z,100520.59
2023-05-12T16:20:35.168Z,100519.03
2023-05-12T16:25:37.325Z,100520.28
2023-05-12T16:30:38.747Z,100518.19
2023-05-12T16:35:40.194Z,100521.84
2023-05-12T16:40:41.635Z,100524.72
2023-05-12T16:45:43.514Z,100526.75
2023-05-12T16:50:45.026Z,100523.53
2023-05-12T16:55:46.451Z,100518.63
2023-05-12T17:00:47.877Z,100526.56
2023-05-12T17:05:49.992Z,100534.88
2023-05-12T17:10:51.644Z,100538.22
2023-05-12T17:15:53.247Z,100542.16
2023-05-12T17:20:54.771Z,100559.94
2023-05-12T17:25:56.432Z,100572.28
2023-05-12T17:30:58.551Z,100576.59
2023-05-12T17:36:11.353Z,100595.88
2023-05-12T17:41:13.600Z,100606.09
2023-05-12T17:46:15.153Z,100623.78
2023-05-12T17:51:16.880Z,100617.59
2023-05-12T17:56:18.365Z,100615.63
2023-05-12T18:01:19.877Z,100613.41
2023-05-12T18:06:21.325Z,100608.78
2023-05-12T18:11:22.822Z,100613.00
2023-05-12T18:16:28.945Z,100608.78
2023-05-12T18:21:31.164Z,100610.16
2023-05-12T18:26:32.666Z,100618.53
2023-05-12T18:31:36.017Z,100616.25
2023-05-12T18:36:37.490Z,100626.03
2023-05-12T18:41:38.912Z,100626.31
2023-05-12T18:46:40.388Z,100627.88
2023-05-12T18:51:41.855Z,100637.16
2023-05-12T18:56:43.361Z,100639.09
2023-05-12T19:01:44.896Z,100647.41
2023-05-12T19:06:46.725Z,100657.53
2023-05-12T19:11:48.154Z,100653.06
2023-05-12T19:16:49.643Z,100666.94
2023-05-12T19:21:52.083Z,100671.75
2023-05-12T19:26:53.532Z,100672.59
2023-05-12T19:31:55.187Z,100674.09
2023-05-12T19:37:00.628Z,100680.16
2023-05-12T19:42:02.116Z,100683.69
2023-05-12T19:47:06.529Z,100684.31
2023-05-12T19:52:08.140Z,100685.34
2023-05-12T19:57:09.550Z,100690.13
2023-05-12T20:02:14.819Z,100696.19
2023-05-12T20:07:16.303Z,100696.16
2023-05-12T20:12:17.765Z,100711.72
2023-05-12T20:17:19.209Z,100707.25
2023-05-12T20:22:21.915Z,100718.50
2023-05-12T20:27:23.365Z,100720.69
2023-05-12T20:32:24.995Z,100723.53
2023-05-12T20:37:26.983Z,100725.94
2023-05-12T20:42:28.548Z,100723.09
2023-05-12T20:47:30.656Z,100726.78
2023-05-12T20:52:33.713Z,100732.63
2023-05-12T20:57:35.284Z,100738.50
2023-05-12T21:02:36.920Z,100731.13
2023-05-12T21:07:38.376Z,100735.22
2023-05-12T21:12:39.852Z,100740.59
2023-05-12T21:17:41.661Z,100742.56
2023-05-12T21:22:43.133Z,100742.00
2023-05-12T21:27:45.754Z,100750.03
2023-05-12T21:32:47.257Z,100757.25
2023-05-12T21:37:51.648Z,100758.84
2023-05-12T21:42:53.161Z,100767.19
2023-05-12T21:47:54.643Z,100762.97
2023-05-12T21:52:56.126Z,100762.81
2023-05-12T21:57:58.592Z,100767.50
2023-05-12T22:03:00.176Z,100773.88
2023-05-12T22:08:01.924Z,100775.06
2023-05-12T22:13:03.356Z,100772.63
2023-05-12T22:18:05.049Z,100770.81
2023-05-12T22:23:06.555Z,100774.25
2023-05-12T22:28:08.017Z,100772.31
2023-05-12T22:33:09.527Z,100786.31
2023-05-12T22:38:11.029Z,100780.72
2023-05-12T22:43:15.242Z,100782.75
2023-05-12T22:48:16.686Z,100787.56
2023-05-12T22:53:18.155Z,100793.50
2023-05-12T22:58:19.584Z,100785.59
2023-05-12T23:03:21.014Z,100800.31
2023-05-12T23:08:22.448Z,100789.72
2023-05-12T23:13:23.888Z,100810.22
2023-05-12T23:18:25.400Z,100796.25
2023-05-12T23:23:26.864Z,100807.03
2023-05-12T23:28:28.336Z,100806.69
2023-05-12T23:33:29.946Z,100816.19
2023-05-12T23:38:31.505Z,100814.19
2023-05-12T23:43:32.944Z,100811.47
2023-05-12T23:48:34.383Z,100813.84
2023-05-12T23:53:35.861Z,100818.03
2023-05-12T23:58:37.311Z,100817.47
